sensor_id;sensor_type;location;lat;lon;timestamp;pressure;altitude;pressure_sealevel;temperature;humidity
24558;BME280;12726;49.148;8.582;2023-06-19T00:02:03;99785.47;;;22.55;56.60
24558;BME280;12726;49.148;8.582;2023-06-19T00:04:48;99794.22;;;22.57;57.11
24558;BME280;12726;49.148;8.582;2023-06-19T00:07:33;99786.59;;;22.54;56.93
24558;BME280;12726;49.148;8.582;2023-06-19T00:10:19;99790.97;;;22.55;57.09
24558;BME280;12726;49.148;8.582;2023-06-19T00:13:04;99790.25;;;22.63;56.68
24558;BME280;12726;49.148;8.582;2023-06-19T00:15:51;99798.47;;;22.63;56.83
24558;BME280;12726;49.148;8.582;2023-06-19T00:18:36;99801.41;;;22.66;56.82
24558;BME280;12726;49.148;8.582;2023-06-19T00:21:23;99808.75;;;22.71;56.84
24558;BME280;12726;49.148;8.582;2023-06-19T00:24:09;99824.41;;;22.84;56.33
24558;BME280;12726;49.148;8.582;2023-06-19T00:26:54;99823.03;;;22.95;55.89
24558;BME280;12726;49.148;8.582;2023-06-19T00:29:40;99813.50;;;22.93;55.52
24558;BME280;12726;49.148;8.582;2023-06-19T00:32:26;99827.72;;;22.95;55.63
24558;BME280;12726;49.148;8.582;2023-06-19T00:35:13;99818.16;;;23.06;55.24
24558;BME280;12726;49.148;8.582;2023-06-19T00:37:59;99842.44;;;23.13;54.72
24558;BME280;12726;49.148;8.582;2023-06-19T00:40:44;99826.66;;;23.18;54.33
24558;BME280;12726;49.148;8.582;2023-06-19T00:43:30;99841.03;;;23.15;54.51
24558;BME280;12726;49.148;8.582;2023-06-19T00:46:15;99854.41;;;23.17;54.39
24558;BME280;12726;49.148;8.582;2023-06-19T00:49:02;99864.78;;;23.20;54.46
24558;BME280;12726;49.148;8.582;2023-06-19T00:51:47;99854.94;;;23.19;54.61
24558;BME280;12726;49.148;8.582;2023-06-19T00:54:33;99866.53;;;23.16;54.82
24558;BME280;12726;49.148;8.582;2023-06-19T00:57:18;99877.75;;;23.06;55.55
24558;BME280;12726;49.148;8.582;2023-06-19T01:00:05;99889.66;;;23.01;55.79
24558;BME280;12726;49.148;8.582;2023-06-19T01:02:51;99877.34;;;22.98;55.61
24558;BME280;12726;49.148;8.582;2023-06-19T01:05:37;99897.56;;;22.89;56.13
24558;BME280;12726;49.148;8.582;2023-06-19T01:08:38;99912.81;;;22.81;56.32
24558;BME280;12726;49.148;8.582;2023-06-19T01:11:30;99901.84;;;22.81;56.40
24558;BME280;12726;49.148;8.582;2023-06-19T01:14:18;99922.28;;;22.75;57.07
24558;BME280;12726;49.148;8.582;2023-06-19T01:17:06;99921.66;;;22.64;57.93
24558;BME280;12726;49.148;8.582;2023-06-19T01:19:51;99913.72;;;22.49;58.79
24558;BME280;12726;49.148;8.582;2023-06-19T01:22:38;99910.84;;;22.41;59.38
24558;BME280;12726;49.148;8.582;2023-06-19T01:25:24;99918.13;;;22.32;60.15
24558;BME280;12726;49.148;8.582;2023-06-19T01:28:10;99902.91;;;22.25;60.40
24558;BME280;12726;49.148;8.582;2023-06-19T01:31:00;99915.06;;;22.19;60.95
24558;BME280;12726;49.148;8.582;2023-06-19T01:33:47;99921.38;;;22.20;61.17
24558;BME280;12726;49.148;8.582;2023-06-19T01:36:35;99915.28;;;22.09;61.64
24558;BME280;12726;49.148;8.582;2023-06-19T01:39:22;99910.91;;;22.08;62.25
24558;BME280;12726;49.148;8.582;2023-06-19T01:42:08;99910.38;;;22.06;62.88
24558;BME280;12726;49.148;8.582;2023-06-19T01:44:55;99914.59;;;21.99;63.23
24558;BME280;12726;49.148;8.582;2023-06-19T01:47:40;99901.56;;;21.91;63.61
24558;BME280;12726;49.148;8.582;2023-06-19T01:50:26;99909.25;;;21.88;64.24
24558;BME280;12726;49.148;8.582;2023-06-19T01:53:11;99914.31;;;21.81;64.87
24558;BME280;12726;49.148;8.582;2023-06-19T01:55:58;99904.78;;;21.79;65.42
24558;BME280;12726;49.148;8.582;2023-06-19T01:58:44;99899.69;;;21.72;66.38
24558;BME280;12726;49.148;8.582;2023-06-19T02:01:29;99900.06;;;21.66;67.26
24558;BME280;12726;49.148;8.582;2023-06-19T02:04:15;99903.53;;;21.53;69.09
24558;BME280;12726;49.148;8.582;2023-06-19T02:07:00;99905.16;;;21.35;70.66
24558;BME280;12726;49.148;8.582;2023-06-19T02:09:45;99911.94;;;21.19;72.30
24558;BME280;12726;49.148;8.582;2023-06-19T02:12:33;99913.47;;;21.06;73.83
24558;BME280;12726;49.148;8.582;2023-06-19T02:15:18;99905.91;;;20.98;75.11
24558;BME280;12726;49.148;8.582;2023-06-19T02:18:04;99924.94;;;20.84;77.95
24558;BME280;12726;49.148;8.582;2023-06-19T02:20:49;99923.34;;;20.59;81.83
24558;BME280;12726;49.148;8.582;2023-06-19T02:23:35;99931.97;;;20.43;84.17
24558;BME280;12726;49.148;8.582;2023-06-19T02:26:21;99916.84;;;20.21;86.07
24558;BME280;12726;49.148;8.582;2023-06-19T02:29:07;99918.06;;;20.10;88.27
24558;BME280;12726;49.148;8.582;2023-06-19T02:31:53;99912.38;;;20.02;89.64
24558;BME280;12726;49.148;8.582;2023-06-19T02:34:38;99898.84;;;19.86;90.85
24558;BME280;12726;49.148;8.582;2023-06-19T02:37:24;99921.56;;;19.82;91.68
24558;BME280;12726;49.148;8.582;2023-06-19T02:40:09;99918.03;;;19.81;91.67
24558;BME280;12726;49.148;8.582;2023-06-19T02:42:55;99912.06;;;19.74;92.66
24558;BME280;12726;49.148;8.582;2023-06-19T02:45:42;99918.84;;;19.77;93.06
24558;BME280;12726;49.148;8.582;2023-06-19T02:48:28;99939.38;;;19.74;93.05
24558;BME280;12726;49.148;8.582;2023-06-19T02:51:13;99947.03;;;19.72;93.99
24558;BME280;12726;49.148;8.582;2023-06-19T02:53:58;99960.72;;;19.67;94.96
24558;BME280;12726;49.148;8.582;2023-06-19T02:56:43;99974.13;;;19.64;94.35
24558;BME280;12726;49.148;8.582;2023-06-19T02:59:29;99985.84;;;19.64;95.36
24558;BME280;12726;49.148;8.582;2023-06-19T03:02:16;99983.97;;;19.60;94.87
24558;BME280;12726;49.148;8.582;2023-06-19T03:05:02;99987.78;;;19.64;95.45
24558;BME280;12726;49.148;8.582;2023-06-19T03:07:47;99977.66;;;19.64;95.58
24558;BME280;12726;49.148;8.582;2023-06-19T03:10:32;99983.69;;;19.61;96.26
24558;BME280;12726;49.148;8.582;2023-06-19T03:13:18;99987.28;;;19.57;96.09
24558;BME280;12726;49.148;8.582;2023-06-19T03:16:03;99979.34;;;19.55;96.76
24558;BME280;12726;49.148;8.582;2023-06-19T03:18:50;99982.91;;;19.55;95.54
24558;BME280;12726;49.148;8.582;2023-06-19T03:21:36;99989.75;;;19.53;95.45
24558;BME280;12726;49.148;8.582;2023-06-19T03:24:21;99990.00;;;19.57;95.28
24558;BME280;12726;49.148;8.582;2023-06-19T03:27:06;99994.38;;;19.58;95.46
24558;BME280;12726;49.148;8.582;2023-06-19T03:29:52;99996.81;;;19.59;95.22
24558;BME280;12726;49.148;8.582;2023-06-19T03:32:38;99999.28;;;19.61;94.83
24558;BME280;12726;49.148;8.582;2023-06-19T03:35:24;99998.97;;;19.67;94.26
24558;BME280;12726;49.148;8.582;2023-06-19T03:38:10;100010.44;;;19.64;93.91
24558;BME280;12726;49.148;8.582;2023-06-19T03:40:55;100016.13;;;19.73;93.30
24558;BME280;12726;49.148;8.582;2023-06-19T03:43:41;100016.94;;;19.73;93.27
24558;BME280;12726;49.148;8.582;2023-06-19T03:46:26;100005.19;;;19.73;92.42
24558;BME280;12726;49.148;8.582;2023-06-19T03:49:11;100020.97;;;19.86;89.68
24558;BME280;12726;49.148;8.582;2023-06-19T03:51:58;100014.94;;;19.89;89.39
24558;BME280;12726;49.148;8.582;2023-06-19T03:54:43;100006.72;;;19.94;88.06
24558;BME280;12726;49.148;8.582;2023-06-19T03:57:29;100011.84;;;20.01;87.74
24558;BME280;12726;49.148;8.582;2023-06-19T04:00:14;100011.84;;;20.01;87.71
24558;BME280;12726;49.148;8.582;2023-06-19T04:03:01;100003.06;;;20.04;87.49
24558;BME280;12726;49.148;8.582;2023-06-19T04:05:47;100005.53;;;20.05;87.36
24558;BME280;12726;49.148;8.582;2023-06-19T04:08:34;100012.41;;;19.98;87.66
24558;BME280;12726;49.148;8.582;2023-06-19T04:11:19;100014.81;;;20.04;87.65
24558;BME280;12726;49.148;8.582;2023-06-19T04:14:05;100017.06;;;19.97;87.30
24558;BME280;12726;49.148;8.582;2023-06-19T04:16:51;100015.94;;;20.03;87.28
24558;BME280;12726;49.148;8.582;2023-06-19T04:19:36;100018.94;;;20.02;87.73
24558;BME280;12726;49.148;8.582;2023-06-19T04:22:21;100020.53;;;20.08;87.33
24558;BME280;12726;49.148;8.582;2023-06-19T04:25:09;100025.75;;;20.04;87.79
24558;BME280;12726;49.148;8.582;2023-06-19T04:27:54;100032.34;;;20.03;86.99
24558;BME280;12726;49.148;8.582;2023-06-19T04:30:40;100033.44;;;20.02;86.98
24558;BME280;12726;49.148;8.582;2023-06-19T04:33:25;100040.78;;;20.07;87.02
24558;BME280;12726;49.148;8.582;2023-06-19T04:36:11;100042.63;;;20.11;86.52
24558;BME280;12726;49.148;8.582;2023-06-19T04:38:56;100041.81;;;20.11;86.26
24558;BME280;12726;49.148;8.582;2023-06-19T04:41:44;100033.84;;;20.19;85.59
24558;BME280;12726;49.148;8.582;2023-06-19T04:44:29;100037.88;;;20.27;84.60
24558;BME280;12726;49.148;8.582;2023-06-19T04:47:19;100042.78;;;20.35;85.02
24558;BME280;12726;49.148;8.582;2023-06-19T04:50:06;100052.22;;;20.48;83.32
24558;BME280;12726;49.148;8.582;2023-06-19T04:52:52;100051.34;;;20.57;82.46
24558;BME280;12726;49.148;8.582;2023-06-19T04:55:37;100050.47;;;20.62;82.04
24558;BME280;12726;49.148;8.582;2023-06-19T04:58:24;100051.53;;;20.66;82.13
24558;BME280;12726;49.148;8.582;2023-06-19T05:01:09;100051.41;;;20.81;81.07
24558;BME280;12726;49.148;8.582;2023-06-19T05:03:55;100051.00;;;20.93;79.88
24558;BME280;12726;49.148;8.582;2023-06-19T05:06:40;100044.63;;;21.02;79.29
24558;BME280;12726;49.148;8.582;2023-06-19T05:09:26;100050.84;;;21.08;79.64
24558;BME280;12726;49.148;8.582;2023-06-19T05:12:12;100057.34;;;21.17;79.17
24558;BME280;12726;49.148;8.582;2023-06-19T05:14:59;100055.84;;;21.30;78.78
24558;BME280;12726;49.148;8.582;2023-06-19T05:17:44;100056.19;;;21.23;78.19
24558;BME280;12726;49.148;8.582;2023-06-19T05:20:30;100056.59;;;21.35;78.81
24558;BME280;12726;49.148;8.582;2023-06-19T05:23:15;100067.72;;;21.44;78.34
24558;BME280;12726;49.148;8.582;2023-06-19T05:26:00;100059.97;;;21.51;78.03
24558;BME280;12726;49.148;8.582;2023-06-19T05:28:46;100046.13;;;21.61;76.88
24558;BME280;12726;49.148;8.582;2023-06-19T05:31:33;100057.25;;;21.70;76.75
24558;BME280;12726;49.148;8.582;2023-06-19T05:34:18;100069.19;;;21.79;76.89
24558;BME280;12726;49.148;8.582;2023-06-19T05:37:04;100068.22;;;21.88;76.08
24558;BME280;12726;49.148;8.582;2023-06-19T05:39:49;100064.38;;;21.89;76.18
24558;BME280;12726;49.148;8.582;2023-06-19T05:42:35;100064.91;;;21.92;76.28
24558;BME280;12726;49.148;8.582;2023-06-19T05:45:20;100069.38;;;22.06;75.76
24558;BME280;12726;49.148;8.582;2023-06-19T05:48:07;100072.03;;;22.11;76.29
24558;BME280;12726;49.148;8.582;2023-06-19T05:50:52;100074.69;;;21.98;76.38
24558;BME280;12726;49.148;8.582;2023-06-19T05:53:38;100069.63;;;21.86;76.40
24558;BME280;12726;49.148;8.582;2023-06-19T05:56:23;100073.50;;;21.85;76.28
24558;BME280;12726;49.148;8.582;2023-06-19T05:59:09;100081.72;;;21.85;77.04
24558;BME280;12726;49.148;8.582;2023-06-19T06:01:54;100081.13;;;21.88;76.95
24558;BME280;12726;49.148;8.582;2023-06-19T06:04:41;100075.41;;;21.84;76.97
24558;BME280;12726;49.148;8.582;2023-06-19T06:07:27;100067.63;;;21.92;76.98
24558;BME280;12726;49.148;8.582;2023-06-19T06:10:12;100072.19;;;22.01;76.59
24558;BME280;12726;49.148;8.582;2023-06-19T06:12:58;100071.44;;;22.14;75.92
24558;BME280;12726;49.148;8.582;2023-06-19T06:15:43;100070.31;;;22.34;75.02
24558;BME280;12726;49.148;8.582;2023-06-19T06:18:28;100068.91;;;22.69;74.90
24558;BME280;12726;49.148;8.582;2023-06-19T06:21:15;100077.25;;;23.10;72.35
24558;BME280;12726;49.148;8.582;2023-06-19T06:24:01;100080.16;;;23.60;70.41
24558;BME280;12726;49.148;8.582;2023-06-19T06:26:46;100087.41;;;24.05;69.31
24558;BME280;12726;49.148;8.582;2023-06-19T06:29:32;100082.81;;;24.50;67.28
24558;BME280;12726;49.148;8.582;2023-06-19T06:32:17;100089.44;;;24.94;65.14
24558;BME280;12726;49.148;8.582;2023-06-19T06:35:03;100098.25;;;25.35;62.54
24558;BME280;12726;49.148;8.582;2023-06-19T06:37:50;100100.69;;;25.46;61.75
24558;BME280;12726;49.148;8.582;2023-06-19T06:40:35;100101.16;;;25.70;61.36
24558;BME280;12726;49.148;8.582;2023-06-19T06:43:21;100097.97;;;25.54;60.36
24558;BME280;12726;49.148;8.582;2023-06-19T06:46:06;100103.41;;;25.68;59.54
24558;BME280;12726;49.148;8.582;2023-06-19T06:48:51;100098.91;;;25.41;59.89
24558;BME280;12726;49.148;8.582;2023-06-19T06:51:37;100113.84;;;25.49;60.50
24558;BME280;12726;49.148;8.582;2023-06-19T06:54:23;100109.63;;;26.08;59.14
24558;BME280;12726;49.148;8.582;2023-06-19T06:57:09;100117.19;;;26.42;58.37
24558;BME280;12726;49.148;8.582;2023-06-19T06:59:54;100117.84;;;26.56;57.93
24558;BME280;12726;49.148;8.582;2023-06-19T07:02:39;100116.38;;;26.41;56.90
24558;BME280;12726;49.148;8.582;2023-06-19T07:05:25;100130.44;;;26.23;57.69
24558;BME280;12726;49.148;8.582;2023-06-19T07:08:10;100137.66;;;26.49;57.17
24558;BME280;12726;49.148;8.582;2023-06-19T07:10:57;100143.34;;;26.36;58.05
24558;BME280;12726;49.148;8.582;2023-06-19T07:13:42;100141.13;;;26.16;57.60
24558;BME280;12726;49.148;8.582;2023-06-19T07:16:28;100152.41;;;26.28;57.04
24558;BME280;12726;49.148;8.582;2023-06-19T07:19:13;100144.91;;;26.80;56.22
24558;BME280;12726;49.148;8.582;2023-06-19T07:21:59;100139.34;;;27.23;54.29
24558;BME280;12726;49.148;8.582;2023-06-19T07:24:44;100153.66;;;27.16;54.15
24558;BME280;12726;49.148;8.582;2023-06-19T07:27:31;100152.75;;;26.69;55.87
24558;BME280;12726;49.148;8.582;2023-06-19T07:30:16;100169.44;;;26.38;56.49
24558;BME280;12726;49.148;8.582;2023-06-19T07:33:01;100168.81;;;25.76;58.60
24558;BME280;12726;49.148;8.582;2023-06-19T07:35:47;100166.63;;;25.33;60.25
24558;BME280;12726;49.148;8.582;2023-06-19T07:38:32;100180.31;;;24.94;62.11
24558;BME280;12726;49.148;8.582;2023-06-19T07:41:17;100169.66;;;24.79;62.49
24558;BME280;12726;49.148;8.582;2023-06-19T07:44:04;100176.09;;;24.74;62.78
24558;BME280;12726;49.148;8.582;2023-06-19T07:46:49;100184.78;;;24.68;63.59
24558;BME280;12726;49.148;8.582;2023-06-19T07:49:35;100193.81;;;24.82;63.16
24558;BME280;12726;49.148;8.582;2023-06-19T07:52:20;100193.13;;;24.76;63.06
24558;BME280;12726;49.148;8.582;2023-06-19T07:55:06;100185.00;;;24.71;63.10
24558;BME280;12726;49.148;8.582;2023-06-19T07:57:51;100174.59;;;24.68;63.24
24558;BME280;12726;49.148;8.582;2023-06-19T08:00:42;100177.91;;;24.56;63.73
24558;BME280;12726;49.148;8.582;2023-06-19T08:03:27;100192.44;;;24.71;64.21
24558;BME280;12726;49.148;8.582;2023-06-19T08:06:12;100194.53;;;24.74;65.03
24558;BME280;12726;49.148;8.582;2023-06-19T08:08:57;100192.91;;;24.73;65.37
24558;BME280;12726;49.148;8.582;2023-06-19T08:11:43;100191.88;;;24.82;65.17
24558;BME280;12726;49.148;8.582;2023-06-19T08:14:28;100188.56;;;24.72;64.57
24558;BME280;12726;49.148;8.582;2023-06-19T08:17:15;100190.41;;;24.63;65.36
24558;BME280;12726;49.148;8.582;2023-06-19T08:20:01;100187.03;;;24.66;64.73
24558;BME280;12726;49.148;8.582;2023-06-19T08:22:49;100190.22;;;24.59;65.58
24558;BME280;12726;49.148;8.582;2023-06-19T08:25:34;100193.34;;;24.66;64.59
24558;BME280;12726;49.148;8.582;2023-06-19T08:28:20;100197.72;;;24.67;66.27
24558;BME280;12726;49.148;8.582;2023-06-19T08:31:05;100195.50;;;24.69;65.48
24558;BME280;12726;49.148;8.582;2023-06-19T08:33:51;100200.69;;;24.71;65.91
24558;BME280;12726;49.148;8.582;2023-06-19T08:36:37;100203.19;;;24.81;65.71
24558;BME280;12726;49.148;8.582;2023-06-19T08:39:22;100208.50;;;24.91;66.19
24558;BME280;12726;49.148;8.582;2023-06-19T08:42:08;100206.22;;;25.15;65.41
24558;BME280;12726;49.148;8.582;2023-06-19T08:44:54;100211.50;;;26.27;61.53
24558;BME280;12726;49.148;8.582;2023-06-19T08:47:39;100205.53;;;27.28;56.48
24558;BME280;12726;49.148;8.582;2023-06-19T08:50:26;100199.94;;;27.45;55.78
24558;BME280;12726;49.148;8.582;2023-06-19T08:53:11;100207.91;;;27.93;54.07
24558;BME280;12726;49.148;8.582;2023-06-19T08:55:56;100211.88;;;28.42;52.66
24558;BME280;12726;49.148;8.582;2023-06-19T08:58:42;100211.13;;;28.84;51.93
24558;BME280;12726;49.148;8.582;2023-06-19T09:01:28;100210.72;;;29.27;51.61
24558;BME280;12726;49.148;8.582;2023-06-19T09:04:13;100217.19;;;29.31;49.09
24558;BME280;12726;49.148;8.582;2023-06-19T09:07:01;100223.94;;;28.67;50.40
24558;BME280;12726;49.148;8.582;2023-06-19T09:09:47;100222.66;;;28.86;50.80
24558;BME280;12726;49.148;8.582;2023-06-19T09:12:32;100220.91;;;29.02;50.05
24558;BME280;12726;49.148;8.582;2023-06-19T09:15:17;100222.19;;;28.63;50.29
24558;BME280;12726;49.148;8.582;2023-06-19T09:18:04;100216.72;;;28.25;50.74
24558;BME280;12726;49.148;8.582;2023-06-19T09:20:52;100215.47;;;27.76;52.22
24558;BME280;12726;49.148;8.582;2023-06-19T09:23:40;100221.81;;;27.76;52.75
24558;BME280;12726;49.148;8.582;2023-06-19T09:26:26;100213.63;;;27.88;52.84
24558;BME280;12726;49.148;8.582;2023-06-19T09:29:12;100210.63;;;28.40;52.54
24558;BME280;12726;49.148;8.582;2023-06-19T09:31:58;100202.72;;;27.92;52.34
24558;BME280;12726;49.148;8.582;2023-06-19T09:34:44;100193.09;;;27.98;53.97
24558;BME280;12726;49.148;8.582;2023-06-19T09:37:30;100199.06;;;28.00;52.72
24558;BME280;12726;49.148;8.582;2023-06-19T09:40:16;100197.63;;;28.53;52.13
24558;BME280;12726;49.148;8.582;2023-06-19T09:43:03;100195.44;;;29.20;49.06
24558;BME280;12726;49.148;8.582;2023-06-19T09:45:50;100199.13;;;29.57;49.75
24558;BME280;12726;49.148;8.582;2023-06-19T09:48:41;100200.19;;;29.77;47.95
24558;BME280;12726;49.148;8.582;2023-06-19T09:51:30;100178.91;;;30.30;46.80
24558;BME280;12726;49.148;8.582;2023-06-19T09:54:16;100192.72;;;30.26;46.17
24558;BME280;12726;49.148;8.582;2023-06-19T09:57:04;100186.00;;;30.03;45.67
24558;BME280;12726;49.148;8.582;2023-06-19T09:59:54;100182.50;;;30.30;45.70
24558;BME280;12726;49.148;8.582;2023-06-19T10:02:41;100184.38;;;30.14;45.20
24558;BME280;12726;49.148;8.582;2023-06-19T10:05:30;100184.72;;;29.88;47.00
24558;BME280;12726;49.148;8.582;2023-06-19T10:08:26;100177.47;;;29.96;46.54
24558;BME280;12726;49.148;8.582;2023-06-19T10:11:13;100178.13;;;29.81;46.96
24558;BME280;12726;49.148;8.582;2023-06-19T10:14:05;100175.09;;;29.62;46.42
24558;BME280;12726;49.148;8.582;2023-06-19T10:16:51;100163.06;;;29.45;48.08
24558;BME280;12726;49.148;8.582;2023-06-19T10:19:36;100173.78;;;29.35;47.85
24558;BME280;12726;49.148;8.582;2023-06-19T10:22:21;100178.47;;;28.89;49.83
24558;BME280;12726;49.148;8.582;2023-06-19T10:25:07;100174.00;;;28.97;49.89
24558;BME280;12726;49.148;8.582;2023-06-19T10:27:52;100183.06;;;29.51;48.42
24558;BME280;12726;49.148;8.582;2023-06-19T10:30:39;100181.47;;;29.74;46.93
24558;BME280;12726;49.148;8.582;2023-06-19T10:33:26;100172.44;;;29.65;48.00
24558;BME280;12726;49.148;8.582;2023-06-19T10:36:15;100175.47;;;30.09;48.65
24558;BME280;12726;49.148;8.582;2023-06-19T10:39:01;100165.91;;;30.58;45.58
24558;BME280;12726;49.148;8.582;2023-06-19T10:41:47;100165.97;;;30.22;44.89
24558;BME280;12726;49.148;8.582;2023-06-19T10:44:32;100162.84;;;29.75;46.59
24558;BME280;12726;49.148;8.582;2023-06-19T10:47:19;100162.13;;;29.41;48.41
24558;BME280;12726;49.148;8.582;2023-06-19T10:50:05;100152.72;;;29.34;47.44
24558;BME280;12726;49.148;8.582;2023-06-19T10:52:54;100137.44;;;29.15;48.42
24558;BME280;12726;49.148;8.582;2023-06-19T10:55:47;100142.97;;;29.15;48.82
24558;BME280;12726;49.148;8.582;2023-06-19T10:58:32;100132.09;;;28.98;49.29
24558;BME280;12726;49.148;8.582;2023-06-19T11:01:18;100138.47;;;29.11;49.88
24558;BME280;12726;49.148;8.582;2023-06-19T11:04:06;100136.25;;;29.86;48.32
24558;BME280;12726;49.148;8.582;2023-06-19T11:06:52;100138.75;;;30.27;48.57
24558;BME280;12726;49.148;8.582;2023-06-19T11:09:37;100135.19;;;30.15;46.92
24558;BME280;12726;49.148;8.582;2023-06-19T11:12:22;100134.59;;;30.21;46.13
24558;BME280;12726;49.148;8.582;2023-06-19T11:15:09;100129.81;;;30.34;46.69
24558;BME280;12726;49.148;8.582;2023-06-19T11:17:55;100129.03;;;30.33;46.60
24558;BME280;12726;49.148;8.582;2023-06-19T11:20:46;100124.88;;;30.27;46.29
24558;BME280;12726;49.148;8.582;2023-06-19T11:23:32;100119.69;;;30.26;46.76
24558;BME280;12726;49.148;8.582;2023-06-19T11:26:17;100116.09;;;30.13;45.76
24558;BME280;12726;49.148;8.582;2023-06-19T11:29:13;100103.31;;;30.36;45.72
24558;BME280;12726;49.148;8.582;2023-06-19T11:32:06;100105.84;;;30.82;45.42
24558;BME280;12726;49.148;8.582;2023-06-19T11:34:51;100109.63;;;31.05;44.57
24558;BME280;12726;49.148;8.582;2023-06-19T11:37:43;100110.78;;;31.32;43.97
24558;BME280;12726;49.148;8.582;2023-06-19T11:40:28;100107.03;;;31.40;42.57
24558;BME280;12726;49.148;8.582;2023-06-19T11:43:23;100110.78;;;31.32;44.53
24558;BME280;12726;49.148;8.582;2023-06-19T11:46:09;100116.50;;;31.23;44.59
24558;BME280;12726;49.148;8.582;2023-06-19T11:48:55;100107.28;;;31.19;43.65
24558;BME280;12726;49.148;8.582;2023-06-19T11:51:41;100102.16;;;31.37;43.74
24558;BME280;12726;49.148;8.582;2023-06-19T11:54:27;100104.88;;;31.33;43.51
24558;BME280;12726;49.148;8.582;2023-06-19T11:57:12;100099.09;;;31.10;43.23
24558;BME280;12726;49.148;8.582;2023-06-19T11:59:58;100094.94;;;31.04;43.29
24558;BME280;12726;49.148;8.582;2023-06-19T12:02:44;100096.00;;;30.56;43.06
24558;BME280;12726;49.148;8.582;2023-06-19T12:05:32;100093.34;;;30.48;44.60
24558;BME280;12726;49.148;8.582;2023-06-19T12:08:17;100098.28;;;30.26;43.86
24558;BME280;12726;49.148;8.582;2023-06-19T12:11:04;100093.22;;;30.16;44.42
24558;BME280;12726;49.148;8.582;2023-06-19T12:13:52;100089.78;;;30.35;43.63
24558;BME280;12726;49.148;8.582;2023-06-19T12:16:39;100098.91;;;30.48;44.78
24558;BME280;12726;49.148;8.582;2023-06-19T12:19:25;100094.19;;;30.92;44.15
24558;BME280;12726;49.148;8.582;2023-06-19T12:22:11;100095.34;;;31.81;41.00
24558;BME280;12726;49.148;8.582;2023-06-19T12:24:56;100088.50;;;32.14;40.06
24558;BME280;12726;49.148;8.582;2023-06-19T12:27:43;100089.34;;;32.34;39.47
24558;BME280;12726;49.148;8.582;2023-06-19T12:30:29;100093.16;;;32.45;39.67
24558;BME280;12726;49.148;8.582;2023-06-19T12:33:14;100073.28;;;32.65;39.48
24558;BME280;12726;49.148;8.582;2023-06-19T12:35:59;100076.59;;;32.52;39.55
24558;BME280;12726;49.148;8.582;2023-06-19T12:38:45;100073.56;;;32.22;39.31
24558;BME280;12726;49.148;8.582;2023-06-19T12:41:31;100067.84;;;31.80;39.86
24558;BME280;12726;49.148;8.582;2023-06-19T12:44:18;100064.22;;;31.60;41.63
24558;BME280;12726;49.148;8.582;2023-06-19T12:47:04;100059.91;;;31.47;42.07
24558;BME280;12726;49.148;8.582;2023-06-19T12:49:49;100052.72;;;31.62;40.79
24558;BME280;12726;49.148;8.582;2023-06-19T12:52:35;100050.88;;;31.69;40.57
24558;BME280;12726;49.148;8.582;2023-06-19T12:55:20;100057.28;;;31.38;41.42
24558;BME280;12726;49.148;8.582;2023-06-19T12:58:06;100052.25;;;31.44;40.75
24558;BME280;12726;49.148;8.582;2023-06-19T13:00:53;100059.00;;;31.43;41.86
24558;BME280;12726;49.148;8.582;2023-06-19T13:03:38;100063.22;;;31.52;41.07
24558;BME280;12726;49.148;8.582;2023-06-19T13:06:24;100057.28;;;31.54;40.47
24558;BME280;12726;49.148;8.582;2023-06-19T13:09:09;100052.44;;;31.67;39.81
24558;BME280;12726;49.148;8.582;2023-06-19T13:11:55;100042.69;;;32.11;39.83
24558;BME280;12726;49.148;8.582;2023-06-19T13:14:40;100036.94;;;31.85;39.26
24558;BME280;12726;49.148;8.582;2023-06-19T13:17:27;100036.06;;;32.00;40.36
24558;BME280;12726;49.148;8.582;2023-06-19T13:20:12;100032.81;;;32.33;39.96
24558;BME280;12726;49.148;8.582;2023-06-19T13:22:58;100032.09;;;32.36;38.83
24558;BME280;12726;49.148;8.582;2023-06-19T13:25:43;100033.09;;;32.28;37.83
24558;BME280;12726;49.148;8.582;2023-06-19T13:28:28;100015.44;;;32.40;38.33
24558;BME280;12726;49.148;8.582;2023-06-19T13:31:14;100012.41;;;32.48;38.54
24558;BME280;12726;49.148;8.582;2023-06-19T13:34:00;100008.69;;;32.41;37.70
24558;BME280;12726;49.148;8.582;2023-06-19T13:36:46;100006.16;;;32.55;38.00
24558;BME280;12726;49.148;8.582;2023-06-19T13:39:31;100001.75;;;32.31;39.10
24558;BME280;12726;49.148;8.582;2023-06-19T13:42:17;100011.41;;;32.37;39.26
24558;BME280;12726;49.148;8.582;2023-06-19T13:45:02;100006.78;;;32.45;38.92
24558;BME280;12726;49.148;8.582;2023-06-19T13:47:48;100007.84;;;32.59;38.59
24558;BME280;12726;49.148;8.582;2023-06-19T13:50:35;100005.72;;;32.72;38.08
24558;BME280;12726;49.148;8.582;2023-06-19T13:53:20;99990.94;;;32.49;38.83
24558;BME280;12726;49.148;8.582;2023-06-19T13:56:05;99993.88;;;32.37;38.15
24558;BME280;12726;49.148;8.582;2023-06-19T13:58:51;99998.88;;;32.47;38.19
24558;BME280;12726;49.148;8.582;2023-06-19T14:01:38;99996.22;;;32.54;38.17
24558;BME280;12726;49.148;8.582;2023-06-19T14:04:25;99992.63;;;32.34;38.08
24558;BME280;12726;49.148;8.582;2023-06-19T14:07:12;99985.97;;;32.39;38.25
24558;BME280;12726;49.148;8.582;2023-06-19T14:09:57;99985.69;;;32.24;38.30
24558;BME280;12726;49.148;8.582;2023-06-19T14:12:43;99982.88;;;32.05;38.13
24558;BME280;12726;49.148;8.582;2023-06-19T14:15:28;99976.34;;;31.78;39.02
24558;BME280;12726;49.148;8.582;2023-06-19T14:18:13;99976.13;;;31.87;38.31
24558;BME280;12726;49.148;8.582;2023-06-19T14:20:59;99982.88;;;31.51;39.64
24558;BME280;12726;49.148;8.582;2023-06-19T14:23:45;99979.16;;;30.96;40.01
24558;BME280;12726;49.148;8.582;2023-06-19T14:26:31;99979.59;;;31.30;41.60
24558;BME280;12726;49.148;8.582;2023-06-19T14:29:16;99973.53;;;31.43;40.00
24558;BME280;12726;49.148;8.582;2023-06-19T14:32:03;99976.69;;;31.77;38.97